HAABHUEN

Guest
Details From HAAB - Bole Intl
To HUEN - Entebbe Intl
Flight Number -
Tags Generated
Created
Modified
Stats Distance 657 nm / 1,216 km
Max Altitude 0 ft / 0 m
Waypoints 3
Social Downloads 0
Likes 0
Share VATSIM

Download

Looking for another format? Having issues loading an existing format? Contact us
Advertisement - Login to hide

Notes

Generated

Route

HAAB NN HUEN

ID Type Via Altitude Latitude Longitude Leg Dist Tot Dist Heading (true) Name
O HAAB APT - 0 ft / 0 m 8.97398˚ 38.78241˚ - 0 nm - -
NN VOR - 0 ft / 0 m 0.05300˚ 32.43800˚ 656 nm 656 nm 216° / 215° ENTEBBE VOR-DME
O HUEN APT - 0 ft / 0 m 0.05123˚ 32.43912˚ 0 nm 656 nm 148° / 148° -

Altitude Profile

Advertisement - Login to hide

Weather


0- 5 10 15 20 25 30 35+ Temperature / ° C

Clouds and Precipitation
Forecast for 2017-12-13 06:00 UTC. Updated 2 hours ago

Ground ~20,000 ft ~40,000 ft Winds

HAAB

Details ICAO HAAB (ADD)
Name BOLE INTL
Region Ethiopia
Timezone Africa/Addis_Ababa (UTC+3.0)
Stats Elevation 7,656 ft / 2,334 m (AMSL)
Location 8.977892° 38.799321°
Runways 2
Magnetic Variation 2.274° E

METAR

HAAB 130700Z 12008KT C A V O K 16/M04 Q1030

Decode

TAF

TAF TAF HAAB 130330Z 1306/1412 18007KT C A V O K BECMG 1309/1313 12008KT BECMG 1320/1323 36004KT BECMG 1405/1409 FEW023

Decode

Departure Runways

ID Width Length Bearing (true) Bearing (mag) Surface Threshold Offset Overrun Length
07L 148 ft / 45 m 12,136 ft / 3,699 m 73.56° 71.29° Asphalt 825 ft / 251 m 195 ft / 59 m
07R 148 ft / 45 m 12,460 ft / 3,798 m 73.53° 71.26° Asphalt 1,185 ft / 361 m 295 ft / 90 m
25L 148 ft / 45 m 12,460 ft / 3,798 m 253.53° 251.26° Asphalt 1,170 ft / 357 m 295 ft / 90 m
25R 148 ft / 45 m 12,136 ft / 3,699 m 253.56° 251.29° Asphalt 1,235 ft / 376 m 180 ft / 55 m

HUEN

Details ICAO HUEN (EBB)
Name ENTEBBE INTL
Region Uganda
Timezone Africa/Kampala (UTC+3.0)
Stats Elevation 3,782 ft / 1,153 m (AMSL)
Location 0.042386° 32.443504°
Runways 2
Magnetic Variation 1.527° E

METAR

HUEN 130630Z 32006KT 9000 FEW021 FEW023CB 23/19 Q1019

Decode

TAF

Not found

Destination Runways

ID Width Length Bearing (true) Bearing (mag) Surface Threshold Offset Overrun Length
12 150 ft / 46 m 8,014 ft / 2,443 m 121.34° 119.81° Asphalt 0 ft / 0 m 0 ft / 0 m
17 150 ft / 46 m 12,073 ft / 3,680 m 171.06° 169.53° Asphalt 0 ft / 0 m 0 ft / 0 m
30 150 ft / 46 m 8,014 ft / 2,443 m 301.34° 299.81° Asphalt 0 ft / 0 m 0 ft / 0 m
35 150 ft / 46 m 12,073 ft / 3,680 m 351.06° 349.53° Asphalt 0 ft / 0 m 0 ft / 0 m

Approach Navaids

Runway Type Ident Frequency Range Bearing (true) Bearing (mag) Slope Elevation
17 Localiser IEL 110.70 MHz 18 nm / 33 km 171.62° 170.10° - 3,754 ft / 1,144 m (AMSL)
17 Glidescope IEL 110.70 MHz 10 nm / 19 km 171.06° 169.53° 3.00° 3,780 ft / 1,152 m (AMSL)
17 DME IEL 110.70 MHz 18 nm / 33 km - - - 3,780 ft / 1,152 m (AMSL)

Popular Alternatives